PWSweather.com
Personal Weather Stations
Station Observations
SWHWX01
St AppolinardFR 38160

St AppolinardFR 38160

Lat: 45.191, Lon: 5.268

Elevation: 1460

Station Type: Davis Vantage Pro2 Plus

www.sweetwebhome.com/?show=wxindex

High Low Average
Temperature 41.5°F5.3°C 36.9°F2.7°C 39.5°F4.2°C
Dew Point 38.9°F3.8°C 34.9°F1.6°C 37.2°F2.9°C
Winds 11.9 mph 19.2 kmh Calm Calm 4.0 mph WSW6.4 kmh WSW
Wind Gusts 17.0 mph27.4 kmh -- 7.0 mph11.3 kmh
Humidity 94% 88% 92%
Pressure 30.23 in1023.7 mb 30.08 in1018.6 mb -
Precipitation 0.00 in0.0 mm - -
Hour Temp Dew Point Humidity Winds Wind Gusts Pressure Precip Precip Rate Daily Precip Total
12:00 AM 41.2°F5.1°C 38.5°F3.6°C 90% 11.4 mph NNW18.3 kmh NNW 14.0 mph22.5 kmh 30.08 in1018.6 mb - 0.00 in0.0 mm 0.00 in0.0 mm
12:30 AM 41.3°F5.2°C 38.6°F3.7°C 90% 8.2 mph N13.2 kmh N 11.0 mph17.7 kmh 30.09 in1019.0 mb - 0.00 in0.0 mm 0.00 in0.0 mm
01:00 AM 41.5°F5.3°C 38.8°F3.8°C 90% 4.5 mph NNW7.2 kmh NNW 8.0 mph12.9 kmh 30.08 in1018.6 mb - 0.00 in0.0 mm 0.00 in0.0 mm
01:30 AM 41.3°F5.2°C 38.9°F3.8°C 91% 8.2 mph NNW13.2 kmh NNW 17.0 mph27.4 kmh 30.09 in1019.0 mb - 0.00 in0.0 mm 0.00 in0.0 mm
02:00 AM 41.3°F5.2°C 38.9°F3.8°C 91% 3.6 mph NE5.8 kmh NE 7.0 mph11.3 kmh 30.09 in1019.0 mb - 0.00 in0.0 mm 0.00 in0.0 mm
02:30 AM 41.3°F5.2°C 38.8°F3.8°C 91% 8.9 mph NNW14.3 kmh NNW 13.0 mph20.9 kmh 30.10 in1019.3 mb - 0.00 in0.0 mm 0.00 in0.0 mm
03:00 AM 40.9°F4.9°C 38.5°F3.6°C 91% 6.2 mph N10.0 kmh N 14.0 mph22.5 kmh 30.10 in1019.3 mb - 0.00 in0.0 mm 0.00 in0.0 mm
03:30 AM 40.7°F4.8°C 38.6°F3.7°C 92% 11.9 mph N19.2 kmh N 16.0 mph25.7 kmh 30.10 in1019.3 mb - 0.00 in0.0 mm 0.00 in0.0 mm
04:00 AM 40.6°F4.8°C 38.5°F3.6°C 92% 10.3 mph NNW16.6 kmh NNW 12.0 mph19.3 kmh 30.11 in1019.6 mb - 0.00 in0.0 mm 0.00 in0.0 mm
04:30 AM 40.6°F4.8°C 38.7°F3.7°C 93% 5.6 mph N9.0 kmh N 9.0 mph14.5 kmh 30.11 in1019.6 mb - 0.00 in0.0 mm 0.00 in0.0 mm
05:00 AM 40.5°F4.7°C 38.6°F3.7°C 93% 4.2 mph N6.8 kmh N 9.0 mph14.5 kmh 30.11 in1019.6 mb - 0.00 in0.0 mm 0.00 in0.0 mm
05:30 AM 40.3°F4.6°C 38.2°F3.4°C 92% 8.8 mph NNW14.2 kmh NNW 13.0 mph20.9 kmh 30.11 in1019.6 mb - 0.00 in0.0 mm 0.00 in0.0 mm
06:00 AM 40.1°F4.5°C 38.2°F3.4°C 93% 7.2 mph NNW11.6 kmh NNW 11.0 mph17.7 kmh 30.12 in1020.0 mb - 0.00 in0.0 mm 0.00 in0.0 mm
06:30 AM 39.7°F4.3°C 37.8°F3.2°C 93% 8.0 mph NNW12.9 kmh NNW 13.0 mph20.9 kmh 30.12 in1020.0 mb - 0.00 in0.0 mm 0.00 in0.0 mm
07:00 AM 39.5°F4.2°C 37.9°F3.3°C 94% 6.9 mph NNW11.1 kmh NNW 9.0 mph14.5 kmh 30.12 in1020.0 mb - 0.00 in0.0 mm 0.00 in0.0 mm
07:30 AM 39.3°F4.1°C 37.7°F3.2°C 94% 7.8 mph NNW12.6 kmh NNW 10.0 mph16.1 kmh 30.13 in1020.3 mb - 0.00 in0.0 mm 0.00 in0.0 mm
08:00 AM 38.9°F3.8°C 37.3°F2.9°C 94% 9.6 mph NW15.4 kmh NW 13.0 mph20.9 kmh 30.14 in1020.7 mb - 0.00 in0.0 mm 0.00 in0.0 mm
08:30 AM 38.9°F3.8°C 37.3°F2.9°C 94% 8.6 mph NW13.8 kmh NW 11.0 mph17.7 kmh 30.15 in1021.0 mb - 0.00 in0.0 mm 0.00 in0.0 mm
09:00 AM 38.8°F3.8°C 37.2°F2.9°C 94% 9.1 mph NW14.6 kmh NW 12.0 mph19.3 kmh 30.15 in1021.0 mb - 0.00 in0.0 mm 0.00 in0.0 mm
09:30 AM 39.0°F3.9°C 37.4°F3.0°C 94% 2.4 mph N3.9 kmh N 4.0 mph6.4 kmh 30.16 in1021.3 mb - 0.00 in0.0 mm 0.00 in0.0 mm
10:00 AM 39.4°F4.1°C 37.5°F3.1°C 93% 0.1 mph N0.2 kmh N 3.0 mph4.8 kmh 30.17 in1021.7 mb - 0.00 in0.0 mm 0.00 in0.0 mm
10:30 AM 39.3°F4.1°C 37.4°F3.0°C 93% 5.3 mph N8.5 kmh N 9.0 mph14.5 kmh 30.18 in1022.0 mb - 0.00 in0.0 mm 0.00 in0.0 mm
11:00 AM 39.1°F3.9°C 37.2°F2.9°C 93% 4.7 mph N7.6 kmh N 8.0 mph12.9 kmh 30.19 in1022.4 mb - 0.00 in0.0 mm 0.00 in0.0 mm
11:30 AM 39.4°F4.1°C 37.3°F2.9°C 92% 3.3 mph N5.3 kmh N 4.0 mph6.4 kmh 30.18 in1022.0 mb - 0.00 in0.0 mm 0.00 in0.0 mm
12:00 PM 39.7°F4.3°C 37.6°F3.1°C 92% 3.7 mph N6.0 kmh N 6.0 mph9.7 kmh 30.18 in1022.0 mb - 0.00 in0.0 mm 0.00 in0.0 mm
12:30 PM 40.1°F4.5°C 37.4°F3.0°C 90% 0.6 mph N1.0 kmh N 2.0 mph3.2 kmh 30.18 in1022.0 mb - 0.00 in0.0 mm 0.00 in0.0 mm
01:00 PM 41.0°F5.0°C 37.7°F3.2°C 88% 2.1 mph N3.4 kmh N 4.0 mph6.4 kmh 30.17 in1021.7 mb - 0.00 in0.0 mm 0.00 in0.0 mm
01:30 PM 41.0°F5.0°C 37.7°F3.2°C 88% 3.5 mph N5.6 kmh N 6.0 mph9.7 kmh 30.17 in1021.7 mb - 0.00 in0.0 mm 0.00 in0.0 mm
02:00 PM 40.5°F4.7°C 37.2°F2.9°C 88% 1.3 mph N2.1 kmh N 2.0 mph3.2 kmh 30.17 in1021.7 mb - 0.00 in0.0 mm 0.00 in0.0 mm
02:30 PM 39.3°F4.1°C 36.9°F2.7°C 91% 5.8 mph NNW9.3 kmh NNW 10.0 mph16.1 kmh 30.18 in1022.0 mb - 0.00 in0.0 mm 0.00 in0.0 mm
03:00 PM 38.7°F3.7°C 36.6°F2.6°C 92% 5.7 mph NNW9.2 kmh NNW 8.0 mph12.9 kmh 30.18 in1022.0 mb - 0.00 in0.0 mm 0.00 in0.0 mm
03:30 PM 39.2°F4.0°C 36.5°F2.5°C 90% 5.1 mph N8.2 kmh N 7.0 mph11.3 kmh 30.19 in1022.4 mb - 0.00 in0.0 mm 0.00 in0.0 mm
04:00 PM 39.4°F4.1°C 36.7°F2.6°C 90% 3.1 mph N5.0 kmh N 6.0 mph9.7 kmh 30.20 in1022.7 mb - 0.00 in0.0 mm 0.00 in0.0 mm
04:30 PM 39.6°F4.2°C 36.9°F2.7°C 90% 2.4 mph NE3.9 kmh NE 3.0 mph4.8 kmh 30.20 in1022.7 mb - 0.00 in0.0 mm 0.00 in0.0 mm
05:00 PM 39.5°F4.2°C 36.8°F2.7°C 90% 2.8 mph N4.5 kmh N 4.0 mph6.4 kmh 30.20 in1022.7 mb - 0.00 in0.0 mm 0.00 in0.0 mm
05:30 PM 39.4°F4.1°C 36.7°F2.6°C 90% 1.2 mph N1.9 kmh N 4.0 mph6.4 kmh 30.20 in1022.7 mb - 0.00 in0.0 mm 0.00 in0.0 mm
06:00 PM 39.4°F4.1°C 36.7°F2.6°C 90% 0.2 mph NE0.3 kmh NE 2.0 mph3.2 kmh 30.20 in1022.7 mb - 0.00 in0.0 mm 0.00 in0.0 mm
06:30 PM 39.1°F3.9°C 36.5°F2.5°C 90% 0.2 mph NE0.3 kmh NE 1.0 mph1.6 kmh 30.20 in1022.7 mb - 0.00 in0.0 mm 0.00 in0.0 mm
07:00 PM 38.9°F3.8°C 36.2°F2.3°C 90% 0.7 mph NE1.1 kmh NE 1.0 mph1.6 kmh 30.19 in1022.4 mb - 0.00 in0.0 mm 0.00 in0.0 mm
07:30 PM 38.4°F3.6°C 35.8°F2.1°C 90% 1.0 mph NE1.6 kmh NE 2.0 mph3.2 kmh 30.19 in1022.4 mb - 0.00 in0.0 mm 0.00 in0.0 mm
08:00 PM 38.3°F3.5°C 35.6°F2.0°C 90% 0.7 mph NNE1.1 kmh NNE 1.0 mph1.6 kmh 30.19 in1022.4 mb - 0.00 in0.0 mm 0.00 in0.0 mm
08:30 PM 38.2°F3.4°C 36.1°F2.3°C 92% 1.2 mph N1.9 kmh N 3.0 mph4.8 kmh 30.19 in1022.4 mb - 0.00 in0.0 mm 0.00 in0.0 mm
09:00 PM 37.9°F3.3°C 35.8°F2.1°C 92% 3.4 mph E5.5 kmh E 5.0 mph8.0 kmh 30.21 in1023.0 mb - 0.00 in0.0 mm 0.00 in0.0 mm
09:30 PM 37.9°F3.3°C 35.8°F2.1°C 92% 0.4 mph E0.6 kmh E 1.0 mph1.6 kmh 30.21 in1023.0 mb - 0.00 in0.0 mm 0.00 in0.0 mm
10:00 PM 37.0°F2.8°C 34.9°F1.6°C 92% 0.2 mph E0.3 kmh E 2.0 mph3.2 kmh 30.22 in1023.4 mb - 0.00 in0.0 mm 0.00 in0.0 mm
10:30 PM 37.3°F2.9°C 35.5°F1.9°C 93% 0.4 mph E0.6 kmh E 2.0 mph3.2 kmh 30.23 in1023.7 mb - 0.00 in0.0 mm 0.00 in0.0 mm
11:00 PM 37.2°F2.9°C 35.4°F1.9°C 93% Calm Calm -- 30.23 in1023.7 mb - 0.00 in0.0 mm 0.00 in0.0 mm
11:30 PM 36.9°F2.7°C 35.0°F1.7°C 93% 0.9 mph E1.4 kmh E 2.0 mph3.2 kmh 30.23 in1023.7 mb - 0.00 in0.0 mm 0.00 in0.0 mm